Goetzville, MI (49736)

2:11 PM EDT on August 30, 2015 (GMT -0400)
Rocky Point | | Change Station
CLOSE
Current Station
Personal Weather Station
Location: Pickford, MI
Elevation: 574 ft
Nearby Weather Stations

Elev 574 ft 46.18 °N, 84.12 °W | Updated 1 minute ago

Partly Cloudy
Partly Cloudy
74.7 °F
Feels Like 77 °F
N
0.0
Wind Variable Wind from West
Gusts 1.3 mph

Today
High -- | Low -- °F
--% Chance of Precip.
Yesterday
High -- | Low -- °F
Precip. -- in
6:54 AM 8:18 PM
Full, 99% visible
Pressure 30.01 in
Visibility 10.0 miles
Clouds Scattered Clouds 2400 ft
Heat Index 77 °F
Dew Point 63 °F
Humidity 66%
Rainfall 0.00 in
Snow Depth Not available.
UV 6 out of 12
Pollen 10.10 out of 12
Air Quality Not available.
Flu Activity Not available.
METAR KCIU 301755Z AUTO 20007G14KT 10SM SCT024 24/17 A3001 RMK AO1 10240 20160 57014
Pressure 30.01 in
Visibility 10.0 miles
Clouds Scattered Clouds 2400 ft
Heat Index 77 °F
Dew Point 63 °F
Humidity 66%
Rainfall 0.00 in
Snow Depth Not available.
UV 6 out of 12
Pollen 10.10 out of 12
Air Quality Not available.
Flu Activity Not available.
METAR KCIU 301755Z AUTO 20007G14KT 10SM SCT024 24/17 A3001 RMK AO1 10240 20160 57014
Nowcast | as of 2:00 PM EDT on August 30, 2015

At 3 PM...partly cloudy. Temperature 74. Southwest winds 9 mph. At 5 PM...partly cloudy. Temperature 75. Southwest winds 10 mph. At 7 PM...mostly clear. Temperature 70. Southwest winds 9 mph. At 9 PM...mostly clear. Temperature 66. Southwest winds 7 mph.

×

10-Day Weather Forecast

×

Almanac

Astronomy

Aug. 30, 2015 Rise Set
Actual Time
Civil Twilight
Nautical Twilight
Astronomical Twilight
Moon
Length of Visible Light
Length of Day
Tomorrow will be .
, % of the Moon is Illuminated

Today's Extremes

State Highs State Lows

Community

WunderPhotos

Upload Photos

1,851,027 photos uploaded!

WunderBlogs® & News

Nearby

Air Quality

  Air Quality AQ Index Pollutant
Not available.

Snow Depth

Station Depth Elevation

Earthquake Activity

City Distance Mag. Time & Date
Minimum magnitude displayed is 2.5.

Coastal Water Temperatures

Place Temperature

Stations

Nearby Weather Stations

Station Location Temp. Windchill Dew Point Humidity Wind Precip. Elev Updated Type